Time,TemperatureF,DewpointF,PressureIn,WindDirection,WindDirectionDegrees,WindSpeedMPH,WindSpeedGustMPH,Humidity,HourlyPrecipIn,Conditions,Clouds,dailyrainin,SolarRadiationWatts/m^2,SoftwareType,DateUTC
2013-04-29 00:00:00,50.4,48.2,30.30,SSW,199,9.0,10.0,92,0.00,,,0.00,0.00,VWS V14.01,2013-04-29 04:00:00,
2013-04-29 00:01:00,50.1,47.3,30.31,SSW,211,8.0,9.0,90,0.00,,---,0.00,0.00,VWS V14.01,2013-04-29 04:01:00,
2013-04-29 00:06:00,50.1,47.3,30.31,SSW,207,8.0,9.0,90,0.00,,---,0.00,0.00,VWS V14.01,2013-04-29 04:06:00,
2013-04-29 00:11:00,50.0,47.2,30.30,SSW,211,7.0,9.0,90,0.00,,---,0.00,0.00,VWS V14.01,2013-04-29 04:11:00,
2013-04-29 00:15:00,50.4,47.3,30.30,SSW,196,6.0,10.0,89,0.00,,,0.00,0.00,VWS V14.01,2013-04-29 04:15:00,
2013-04-29 00:16:00,50.0,47.2,30.30,SSW,200,8.0,8.0,90,0.00,,---,0.00,0.00,VWS V14.01,2013-04-29 04:16:00,
2013-04-29 00:21:00,50.1,47.6,30.30,SSW,209,6.0,10.0,91,0.00,,---,0.00,0.00,VWS V14.01,2013-04-29 04:21:00,
2013-04-29 00:26:00,50.1,47.3,30.30,SSW,204,8.0,10.0,90,0.00,,---,0.00,0.00,VWS V14.01,2013-04-29 04:26:00,
2013-04-29 00:30:00,50.3,47.2,30.30,SSW,209,7.0,9.0,89,0.00,,,0.00,0.00,VWS V14.01,2013-04-29 04:30:00,
2013-04-29 00:31:00,50.1,47.3,30.30,SSW,205,7.0,8.0,90,0.00,,---,0.00,0.00,VWS V14.01,2013-04-29 04:31:00,
2013-04-29 00:36:00,50.1,47.3,30.30,SSW,199,8.0,8.0,90,0.00,,---,0.00,0.00,VWS V14.01,2013-04-29 04:36:00,
2013-04-29 00:41:00,50.0,47.2,30.30,SSW,196,7.0,9.0,90,0.00,,---,0.00,0.00,VWS V14.01,2013-04-29 04:41:00,
2013-04-29 00:45:00,50.2,47.4,30.31,SW,222,7.0,9.0,90,0.00,,,0.00,0.00,VWS V14.01,2013-04-29 04:45:00,
2013-04-29 00:46:00,50.1,47.3,30.30,SW,215,7.0,7.0,90,0.00,,---,0.00,0.00,VWS V14.01,2013-04-29 04:46:00,
2013-04-29 00:51:00,50.1,47.3,30.31,SSW,207,9.0,9.0,90,0.00,,---,0.00,0.00,VWS V14.01,2013-04-29 04:51:00,
2013-04-29 00:56:00,50.1,47.3,30.30,SSW,210,6.0,9.0,90,0.00,,---,0.00,0.00,VWS V14.01,2013-04-29 04:56:00,
2013-04-29 01:00:00,50.1,47.3,30.31,SW,215,7.0,9.0,90,0.00,,,0.00,0.00,VWS V14.01,2013-04-29 05:00:00,
2013-04-29 01:01:00,50.1,47.3,30.30,SSW,209,7.0,7.0,90,0.00,,---,0.00,0.00,VWS V14.01,2013-04-29 05:01:00,
2013-04-29 01:06:00,50.1,47.3,30.30,SSW,202,6.0,9.0,90,0.00,,---,0.00,0.00,VWS V14.01,2013-04-29 05:06:00,
2013-04-29 01:11:00,50.1,47.3,30.30,SSW,205,8.0,9.0,90,0.00,,---,0.00,0.00,VWS V14.01,2013-04-29 05:11:00,
2013-04-29 01:15:00,50.0,47.2,30.31,SSW,199,8.0,10.0,90,0.00,,,0.00,0.00,VWS V14.01,2013-04-29 05:15:00,
2013-04-29 01:16:00,50.1,47.3,30.30,SSW,213,9.0,9.0,90,0.00,,---,0.00,0.00,VWS V14.01,2013-04-29 05:16:00,
2013-04-29 01:21:00,50.1,47.3,30.30,SSW,207,7.0,9.0,90,0.00,,---,0.00,0.00,VWS V14.01,2013-04-29 05:21:00,
2013-04-29 01:26:00,50.1,47.3,30.30,SSW,200,8.0,9.0,90,0.00,,---,0.00,0.00,VWS V14.01,2013-04-29 05:26:00,
2013-04-29 01:30:00,50.1,47.3,30.30,SSW,207,7.0,10.0,90,0.00,,,0.00,0.00,VWS V14.01,2013-04-29 05:30:00,
2013-04-29 01:31:00,50.0,46.9,30.30,SSW,194,7.0,7.0,89,0.00,,---,0.00,0.00,VWS V14.01,2013-04-29 05:31:00,
2013-04-29 01:36:00,50.0,47.2,30.30,SSW,194,7.0,8.0,90,0.00,,---,0.00,0.00,VWS V14.01,2013-04-29 05:36:00,
2013-04-29 01:41:00,50.0,46.9,30.30,SSW,194,7.0,9.0,89,0.00,,---,0.00,0.00,VWS V14.01,2013-04-29 05:41:00,
2013-04-29 01:45:00,50.1,47.3,30.30,SW,215,7.0,9.0,90,0.00,,,0.00,0.00,VWS V14.01,2013-04-29 05:45:00,
2013-04-29 01:46:00,50.1,47.3,30.30,SSW,194,5.0,6.0,90,0.00,,---,0.00,0.00,VWS V14.01,2013-04-29 05:46:00,
2013-04-29 01:51:00,50.0,46.9,30.30,SSW,200,7.0,8.0,89,0.00,,---,0.00,0.00,VWS V14.01,2013-04-29 05:51:00,
2013-04-29 01:56:00,50.0,47.2,30.30,SSW,200,7.0,8.0,90,0.00,,---,0.00,0.00,VWS V14.01,2013-04-29 05:56:00,
2013-04-29 02:00:00,50.1,47.3,30.30,SW,227,5.0,9.0,90,0.00,,,0.00,0.00,VWS V14.01,2013-04-29 06:00:00,
2013-04-29 02:01:00,50.0,46.9,30.30,SSW,196,7.0,8.0,89,0.00,,---,0.00,0.00,VWS V14.01,2013-04-29 06:01:00,
2013-04-29 02:06:00,50.0,46.9,30.29,SSW,193,7.0,8.0,89,0.00,,---,0.00,0.00,VWS V14.01,2013-04-29 06:06:00,
2013-04-29 02:11:00,50.0,46.9,30.29,SSW,198,8.0,8.0,89,0.00,,---,0.00,0.00,VWS V14.01,2013-04-29 06:11:00,
2013-04-29 02:15:00,50.1,47.3,30.30,SSW,209,8.0,9.0,90,0.00,,,0.00,0.00,VWS V14.01,2013-04-29 06:15:00,
2013-04-29 02:16:00,50.0,46.9,30.29,SSW,194,7.0,7.0,89,0.00,,---,0.00,0.00,VWS V14.01,2013-04-29 06:16:00,
2013-04-29 02:21:00,50.0,46.9,30.28,SSW,192,6.0,7.0,89,0.00,,---,0.00,0.00,VWS V14.01,2013-04-29 06:21:00,
2013-04-29 02:26:00,49.9,46.8,30.28,SSW,196,5.0,7.0,89,0.00,,---,0.00,0.00,VWS V14.01,2013-04-29 06:26:00,
2013-04-29 02:30:00,50.0,46.9,30.30,SSW,198,7.0,9.0,89,0.00,,,0.00,0.00,VWS V14.01,2013-04-29 06:30:00,
2013-04-29 02:31:00,49.9,46.5,30.28,SSW,195,6.0,6.0,88,0.00,,---,0.00,0.00,VWS V14.01,2013-04-29 06:31:00,
2013-04-29 02:36:00,49.9,46.5,30.28,SSW,200,5.0,6.0,88,0.00,,---,0.00,0.00,VWS V14.01,2013-04-29 06:36:00,
2013-04-29 02:41:00,50.0,46.9,30.28,South,190,5.0,7.0,89,0.00,,---,0.00,0.00,VWS V14.01,2013-04-29 06:41:00,
2013-04-29 02:45:00,50.0,47.2,30.30,SSW,194,6.0,9.0,90,0.00,,,0.00,0.00,VWS V14.01,2013-04-29 06:45:00,
2013-04-29 02:46:00,50.0,46.6,30.28,SSW,197,6.0,7.0,88,0.00,,---,0.00,0.00,VWS V14.01,2013-04-29 06:46:00,
2013-04-29 02:51:00,50.0,46.6,30.27,SSW,192,4.0,8.0,88,0.00,,---,0.00,0.00,VWS V14.01,2013-04-29 06:51:00,
2013-04-29 02:56:00,50.0,46.6,30.27,South,188,5.0,8.0,88,0.00,,---,0.00,0.00,VWS V14.01,2013-04-29 06:56:00,
2013-04-29 03:00:00,50.0,46.9,30.29,SSW,198,6.0,8.0,89,0.00,,,0.00,0.00,VWS V14.01,2013-04-29 07:00:00,
2013-04-29 03:01:00,50.0,46.6,30.27,South,175,4.0,5.0,88,0.00,,---,0.00,0.00,VWS V14.01,2013-04-29 07:01:00,
2013-04-29 03:06:00,50.0,46.9,30.27,South,173,5.0,6.0,89,0.00,,---,0.00,0.00,VWS V14.01,2013-04-29 07:06:00,
2013-04-29 03:11:00,50.0,46.9,30.27,SSE,160,6.0,6.0,89,0.00,,---,0.00,0.00,VWS V14.01,2013-04-29 07:11:00,
2013-04-29 03:15:00,50.0,46.9,30.29,SSW,196,6.0,9.0,89,0.00,,,0.00,0.00,VWS V14.01,2013-04-29 07:15:00,
2013-04-29 03:16:00,49.9,46.8,30.27,SSE,158,5.0,5.0,89,0.00,,---,0.00,0.00,VWS V14.01,2013-04-29 07:16:00,
2013-04-29 03:21:00,49.8,46.7,30.27,SSE,153,6.0,7.0,89,0.00,,---,0.00,0.00,VWS V14.01,2013-04-29 07:21:00,
2013-04-29 03:26:00,49.7,46.6,30.27,South,171,5.0,7.0,89,0.00,,---,0.00,0.00,VWS V14.01,2013-04-29 07:26:00,
2013-04-29 03:30:00,49.9,46.5,30.28,SSW,195,6.0,7.0,88,0.00,,,0.00,0.00,VWS V14.01,2013-04-29 07:30:00,
2013-04-29 03:31:00,49.8,46.7,30.27,South,169,5.0,5.0,89,0.00,,---,0.00,0.00,VWS V14.01,2013-04-29 07:31:00,
2013-04-29 03:36:00,49.8,46.7,30.27,SSE,160,6.0,7.0,89,0.00,,---,0.00,0.00,VWS V14.01,2013-04-29 07:36:00,
2013-04-29 03:41:00,49.8,46.7,30.27,SSE,152,5.0,7.0,89,0.00,,---,0.00,0.00,VWS V14.01,2013-04-29 07:41:00,
2013-04-29 03:46:00,49.6,46.5,30.27,SSE,148,6.0,6.0,89,0.00,,---,0.00,0.00,VWS V14.01,2013-04-29 07:46:00,
2013-04-29 03:51:00,49.6,46.5,30.27,SE,146,5.0,7.0,89,0.00,,---,0.00,0.00,VWS V14.01,2013-04-29 07:51:00,
2013-04-29 03:56:00,49.5,46.7,30.27,SSE,152,4.0,7.0,90,0.00,,---,0.00,0.00,VWS V14.01,2013-04-29 07:56:00,
2013-04-29 04:00:00,50.0,46.6,30.27,South,178,4.0,8.0,88,0.00,,,0.00,0.00,VWS V14.01,2013-04-29 08:00:00,
2013-04-29 04:01:00,49.5,46.7,30.27,SSE,159,6.0,6.0,90,0.00,,---,0.00,0.00,VWS V14.01,2013-04-29 08:01:00,
2013-04-29 04:06:00,49.4,46.6,30.27,SSE,161,5.0,7.0,90,0.00,,---,0.00,0.00,VWS V14.01,2013-04-29 08:06:00,
2013-04-29 04:11:00,49.4,46.6,30.27,SSE,159,5.0,7.0,90,0.00,,---,0.00,0.00,VWS V14.01,2013-04-29 08:11:00,
2013-04-29 04:15:00,49.9,46.8,30.27,SSE,154,5.0,7.0,89,0.00,,,0.00,0.00,VWS V14.01,2013-04-29 08:15:00,
2013-04-29 04:16:00,49.4,46.6,30.27,SSE,161,5.0,5.0,90,0.00,,---,0.00,0.00,VWS V14.01,2013-04-29 08:16:00,
2013-04-29 04:21:00,49.5,46.7,30.27,SSE,165,7.0,7.0,90,0.00,,---,0.00,0.00,VWS V14.01,2013-04-29 08:21:00,
2013-04-29 04:26:00,49.6,46.8,30.27,SSE,166,5.0,7.0,90,0.00,,---,0.00,0.00,VWS V14.01,2013-04-29 08:26:00,
2013-04-29 04:30:00,49.7,46.6,30.27,South,169,5.0,7.0,89,0.00,,,0.00,0.00,VWS V14.01,2013-04-29 08:30:00,
2013-04-29 04:31:00,49.6,46.5,30.27,SSE,167,5.0,6.0,89,0.00,,---,0.00,0.00,VWS V14.01,2013-04-29 08:31:00,
2013-04-29 04:36:00,49.7,46.6,30.27,South,173,5.0,6.0,89,0.00,,---,0.00,0.00,VWS V14.01,2013-04-29 08:36:00,
2013-04-29 04:41:00,49.7,46.6,30.27,South,180,4.0,6.0,89,0.00,,---,0.00,0.00,VWS V14.01,2013-04-29 08:41:00,
2013-04-29 04:45:00,49.7,46.6,30.27,SSE,155,6.0,7.0,89,0.00,,,0.00,0.00,VWS V14.01,2013-04-29 08:45:00,
2013-04-29 04:46:00,49.8,46.7,30.27,South,183,4.0,4.0,89,0.00,,---,0.00,0.00,VWS V14.01,2013-04-29 08:46:00,
2013-04-29 04:51:00,49.9,46.8,30.27,South,188,4.0,6.0,89,0.00,,---,0.00,0.00,VWS V14.01,2013-04-29 08:51:00,
2013-04-29 04:56:00,49.9,46.8,30.27,South,188,6.0,6.0,89,0.00,,---,0.00,0.00,VWS V14.01,2013-04-29 08:56:00,
2013-04-29 05:00:00,49.5,46.7,30.27,SSE,153,5.0,7.0,90,0.00,,,0.00,0.00,VWS V14.01,2013-04-29 09:00:00,
2013-04-29 05:01:00,49.9,46.8,30.28,South,190,5.0,5.0,89,0.00,,---,0.00,0.00,VWS V14.01,2013-04-29 09:01:00,
2013-04-29 05:06:00,49.9,46.8,30.27,South,187,5.0,6.0,89,0.00,,---,0.00,0.00,VWS V14.01,2013-04-29 09:06:00,
2013-04-29 05:11:00,49.9,46.8,30.28,South,182,4.0,6.0,89,0.00,,---,0.00,0.00,VWS V14.01,2013-04-29 09:11:00,
2013-04-29 05:15:00,49.4,46.6,30.27,SSE,156,4.0,7.0,90,0.00,,,0.00,0.00,VWS V14.01,2013-04-29 09:15:00,
2013-04-29 05:16:00,49.9,46.8,30.28,South,180,4.0,5.0,89,0.00,,---,0.00,0.00,VWS V14.01,2013-04-29 09:16:00,
2013-04-29 05:21:00,49.9,46.8,30.28,South,181,3.0,5.0,89,0.00,,---,0.00,0.00,VWS V14.01,2013-04-29 09:21:00,
2013-04-29 05:26:00,49.9,46.5,30.28,South,185,4.0,5.0,88,0.00,,---,0.00,0.00,VWS V14.01,2013-04-29 09:26:00,
2013-04-29 05:30:00,49.6,46.5,30.27,South,176,6.0,7.0,89,0.00,,,0.00,0.00,VWS V14.01,2013-04-29 09:30:00,
2013-04-29 05:31:00,49.9,46.8,30.28,South,186,5.0,5.0,89,0.00,,---,0.00,0.00,VWS V14.01,2013-04-29 09:31:00,
2013-04-29 05:36:00,49.9,46.5,30.28,South,189,4.0,6.0,88,0.00,,---,0.00,0.00,VWS V14.01,2013-04-29 09:36:00,
2013-04-29 05:41:00,49.9,46.5,30.28,South,186,4.0,6.0,88,0.00,,---,0.00,5.00,VWS V14.01,2013-04-29 09:41:00,
2013-04-29 05:45:00,49.8,46.7,30.27,South,181,4.0,6.0,89,0.00,,,0.00,0.00,VWS V14.01,2013-04-29 09:45:00,
2013-04-29 05:46:00,50.0,46.6,30.28,South,179,4.0,4.0,88,0.00,,---,0.00,5.00,VWS V14.01,2013-04-29 09:46:00,
2013-04-29 05:51:00,50.0,46.6,30.28,South,173,4.0,5.0,88,0.00,,---,0.00,7.00,VWS V14.01,2013-04-29 09:51:00,
2013-04-29 05:56:00,50.0,46.6,30.29,South,188,4.0,5.0,88,0.00,,---,0.00,12.00,VWS V14.01,2013-04-29 09:56:00,
2013-04-29 06:00:00,49.9,46.8,30.27,South,190,5.0,6.0,89,0.00,,,0.00,0.00,VWS V14.01,2013-04-29 10:00:00,
2013-04-29 06:01:00,50.0,46.6,30.29,South,184,5.0,5.0,88,0.00,,---,0.00,16.00,VWS V14.01,2013-04-29 10:01:00,
2013-04-29 06:06:00,50.1,46.7,30.29,South,188,5.0,5.0,88,0.00,,---,0.00,19.00,VWS V14.01,2013-04-29 10:06:00,
2013-04-29 06:11:00,50.1,46.4,30.29,South,182,4.0,6.0,87,0.00,,---,0.00,21.00,VWS V14.01,2013-04-29 10:11:00,
2013-04-29 06:15:00,49.9,46.8,30.28,South,179,5.0,6.0,89,0.00,,,0.00,0.00,VWS V14.01,2013-04-29 10:15:00,
2013-04-29 06:16:00,50.2,46.5,30.29,South,178,5.0,5.0,87,0.00,,---,0.00,25.00,VWS V14.01,2013-04-29 10:16:00,
2013-04-29 06:21:00,50.2,46.5,30.30,South,171,5.0,7.0,87,0.00,,---,0.00,30.00,VWS V14.01,2013-04-29 10:21:00,
2013-04-29 06:26:00,50.3,46.6,30.29,South,170,5.0,7.0,87,0.00,,---,0.00,37.00,VWS V14.01,2013-04-29 10:26:00,
2013-04-29 06:30:00,49.9,46.8,30.28,South,184,4.0,5.0,89,0.00,,,0.00,0.00,VWS V14.01,2013-04-29 10:30:00,
2013-04-29 06:31:00,50.3,46.6,30.29,South,169,4.0,5.0,87,0.00,,---,0.00,46.00,VWS V14.01,2013-04-29 10:31:00,
2013-04-29 06:36:00,50.3,46.6,30.30,SSE,150,5.0,6.0,87,0.00,,---,0.00,49.00,VWS V14.01,2013-04-29 10:36:00,
2013-04-29 06:41:00,50.3,46.6,30.30,South,169,4.0,6.0,87,0.00,,---,0.00,54.00,VWS V14.01,2013-04-29 10:41:00,
2013-04-29 06:45:00,49.9,46.5,30.28,South,180,3.0,6.0,88,0.00,,,0.00,5.00,VWS V14.01,2013-04-29 10:45:00,
2013-04-29 06:46:00,50.3,46.6,30.30,SSE,167,4.0,4.0,87,0.00,,---,0.00,56.00,VWS V14.01,2013-04-29 10:46:00,
2013-04-29 06:51:00,50.3,46.6,30.30,SSE,162,5.0,6.0,87,0.00,,---,0.00,67.00,VWS V14.01,2013-04-29 10:51:00,
2013-04-29 06:56:00,50.4,46.7,30.30,SSE,153,4.0,6.0,87,0.00,,---,0.00,90.00,VWS V14.01,2013-04-29 10:56:00,
2013-04-29 07:00:00,50.1,46.7,30.29,South,180,5.0,5.0,88,0.00,,,0.00,16.00,VWS V14.01,2013-04-29 11:00:00,
2013-04-29 07:01:00,50.5,46.8,30.30,SSE,148,5.0,5.0,87,0.00,,---,0.00,98.00,VWS V14.01,2013-04-29 11:01:00,
2013-04-29 07:06:00,50.5,46.8,30.30,SSE,154,6.0,6.0,87,0.00,,---,0.00,98.00,VWS V14.01,2013-04-29 11:06:00,
2013-04-29 07:11:00,50.5,46.8,30.31,SSE,150,5.0,6.0,87,0.00,,---,0.00,98.00,VWS V14.01,2013-04-29 11:11:00,
2013-04-29 07:15:00,50.2,46.5,30.29,South,182,4.0,6.0,87,0.00,,,0.00,25.00,VWS V14.01,2013-04-29 11:15:00,
2013-04-29 07:16:00,50.6,46.6,30.30,SE,145,6.0,6.0,86,0.00,,---,0.00,100.00,VWS V14.01,2013-04-29 11:16:00,
2013-04-29 07:21:00,50.6,46.6,30.31,SSE,155,4.0,7.0,86,0.00,,---,0.00,102.00,VWS V14.01,2013-04-29 11:21:00,
2013-04-29 07:26:00,50.7,46.7,30.31,SSE,152,5.0,7.0,86,0.00,,---,0.00,111.00,VWS V14.01,2013-04-29 11:26:00,
2013-04-29 07:30:00,50.3,46.6,30.29,South,170,2.0,7.0,87,0.00,,,0.00,46.00,VWS V14.01,2013-04-29 11:30:00,
2013-04-29 07:31:00,50.8,46.5,30.31,SSE,153,5.0,5.0,85,0.00,,---,0.00,125.00,VWS V14.01,2013-04-29 11:31:00,
2013-04-29 07:36:00,50.8,46.5,30.31,SSE,162,6.0,7.0,85,0.00,,---,0.00,142.00,VWS V14.01,2013-04-29 11:36:00,
2013-04-29 07:41:00,50.9,46.6,30.31,SSE,159,6.0,7.0,85,0.00,,---,0.00,163.00,VWS V14.01,2013-04-29 11:41:00,
2013-04-29 07:45:00,50.3,46.6,30.30,SSE,167,4.0,6.0,87,0.00,,,0.00,56.00,VWS V14.01,2013-04-29 11:45:00,
2013-04-29 07:46:00,50.9,46.2,30.31,SSE,165,7.0,7.0,84,0.00,,---,0.00,183.00,VWS V14.01,2013-04-29 11:46:00,
2013-04-29 07:51:00,51.1,46.4,30.31,SSE,154,5.0,7.0,84,0.00,,---,0.00,209.00,VWS V14.01,2013-04-29 11:51:00,
2013-04-29 07:56:00,51.4,46.4,30.31,SSE,147,6.0,7.0,83,0.00,,---,0.00,236.00,VWS V14.01,2013-04-29 11:56:00,
2013-04-29 08:00:00,50.5,46.8,30.30,SSE,150,4.0,6.0,87,0.00,,,0.00,98.00,VWS V14.01,2013-04-29 12:00:00,
2013-04-29 08:01:00,51.6,46.6,30.31,SSE,157,7.0,7.0,83,0.00,,---,0.00,260.00,VWS V14.01,2013-04-29 12:01:00,
2013-04-29 08:06:00,51.9,46.9,30.31,SSE,157,7.0,8.0,83,0.00,,---,0.00,308.00,VWS V14.01,2013-04-29 12:06:00,
2013-04-29 08:11:00,52.3,47.3,30.31,SSE,153,4.0,8.0,83,0.00,,---,0.00,334.00,VWS V14.01,2013-04-29 12:11:00,
2013-04-29 08:15:00,50.6,46.6,30.31,SE,144,6.0,7.0,86,0.00,,,0.00,102.00,VWS V14.01,2013-04-29 12:15:00,
2013-04-29 08:16:00,52.6,47.3,30.31,SSE,160,5.0,5.0,82,0.00,,---,0.00,352.00,VWS V14.01,2013-04-29 12:16:00,
2013-04-29 08:21:00,52.8,47.1,30.31,SSE,153,6.0,7.0,81,0.00,,---,0.00,302.00,VWS V14.01,2013-04-29 12:21:00,
2013-04-29 08:26:00,53.1,47.1,30.31,SSE,154,6.0,7.0,80,0.00,,---,0.00,281.00,VWS V14.01,2013-04-29 12:26:00,
2013-04-29 08:30:00,50.8,46.5,30.31,SSE,152,4.0,7.0,85,0.00,,,0.00,123.00,VWS V14.01,2013-04-29 12:30:00,
2013-04-29 08:31:00,53.3,47.3,30.31,SSE,156,6.0,6.0,80,0.00,,---,0.00,271.00,VWS V14.01,2013-04-29 12:31:00,
2013-04-29 08:36:00,53.4,47.4,30.31,SSE,157,7.0,8.0,80,0.00,,---,0.00,283.00,VWS V14.01,2013-04-29 12:36:00,
2013-04-29 08:41:00,53.5,47.5,30.31,SSE,153,7.0,8.0,80,0.00,,---,0.00,297.00,VWS V14.01,2013-04-29 12:41:00,
2013-04-29 08:45:00,51.0,46.3,30.31,SSE,163,6.0,7.0,84,0.00,,,0.00,178.00,VWS V14.01,2013-04-29 12:45:00,
2013-04-29 08:46:00,53.6,47.6,30.31,SSE,150,7.0,7.0,80,0.00,,---,0.00,309.00,VWS V14.01,2013-04-29 12:46:00,
2013-04-29 08:51:00,53.7,47.3,30.31,SSE,153,7.0,7.0,79,0.00,,---,0.00,343.00,VWS V14.01,2013-04-29 12:51:00,
2013-04-29 08:57:00,53.9,47.9,30.31,SSE,152,6.0,7.0,80,0.00,,---,0.00,362.00,VWS V14.01,2013-04-29 12:57:00,
2013-04-29 09:00:00,51.6,46.6,30.31,SSE,149,5.0,8.0,83,0.00,,,0.00,260.00,VWS V14.01,2013-04-29 13:00:00,
2013-04-29 09:02:00,54.2,47.8,30.31,SSE,150,5.0,7.0,79,0.00,,---,0.00,355.00,VWS V14.01,2013-04-29 13:02:00,
2013-04-29 09:07:00,54.5,47.8,30.31,SE,143,4.0,8.0,78,0.00,,---,0.00,308.00,VWS V14.01,2013-04-29 13:07:00,
2013-04-29 09:12:00,54.7,48.0,30.31,SE,144,6.0,8.0,78,0.00,,---,0.00,294.00,VWS V14.01,2013-04-29 13:12:00,
2013-04-29 09:15:00,52.6,47.3,30.31,SSE,163,5.0,8.0,82,0.00,,,0.00,352.00,VWS V14.01,2013-04-29 13:15:00,
2013-04-29 09:17:00,54.8,47.7,30.31,SE,138,6.0,6.0,77,0.00,,---,0.00,313.00,VWS V14.01,2013-04-29 13:17:00,
2013-04-29 09:22:00,55.0,47.9,30.31,SE,136,6.0,6.0,77,0.00,,---,0.00,332.00,VWS V14.01,2013-04-29 13:22:00,
2013-04-29 09:27:00,55.1,47.7,30.31,SE,141,6.0,7.0,76,0.00,,---,0.00,403.00,VWS V14.01,2013-04-29 13:27:00,
2013-04-29 09:30:00,53.3,47.6,30.31,SSE,159,6.0,8.0,81,0.00,,,0.00,271.00,VWS V14.01,2013-04-29 13:30:00,
2013-04-29 09:32:00,55.3,47.9,30.31,SSE,150,5.0,6.0,76,0.00,,---,0.00,422.00,VWS V14.01,2013-04-29 13:32:00,
2013-04-29 09:37:00,55.7,48.6,30.31,SSE,153,6.0,7.0,77,0.00,,---,0.00,570.00,VWS V14.01,2013-04-29 13:37:00,
2013-04-29 09:42:00,56.3,48.8,30.31,SSE,154,6.0,7.0,76,0.00,,---,0.00,626.00,VWS V14.01,2013-04-29 13:42:00,
2013-04-29 09:45:00,53.6,47.6,30.31,SSE,154,7.0,8.0,80,0.00,,,0.00,309.00,VWS V14.01,2013-04-29 13:45:00,
2013-04-29 09:47:00,56.7,48.5,30.31,SSE,158,5.0,6.0,74,0.00,,---,0.00,656.00,VWS V14.01,2013-04-29 13:47:00,
2013-04-29 09:52:00,56.1,47.9,30.31,SSE,162,6.0,6.0,74,0.00,,---,0.00,677.00,VWS V14.01,2013-04-29 13:52:00,
2013-04-29 09:57:00,55.8,48.0,30.31,SSE,158,5.0,6.0,75,0.00,,---,0.00,617.00,VWS V14.01,2013-04-29 13:57:00,
2013-04-29 10:00:00,54.2,47.8,30.31,SE,145,6.0,7.0,79,0.00,,,0.00,359.00,VWS V14.01,2013-04-29 14:00:00,
2013-04-29 10:02:00,55.4,48.0,30.31,SSE,165,5.0,7.0,76,0.00,,---,0.00,480.00,VWS V14.01,2013-04-29 14:02:00,
2013-04-29 10:07:00,54.7,47.6,30.31,South,177,5.0,7.0,77,0.00,,---,0.00,793.00,VWS V14.01,2013-04-29 14:07:00,
2013-04-29 10:12:00,54.3,47.6,30.31,South,179,5.0,7.0,78,0.00,,---,0.00,828.00,VWS V14.01,2013-04-29 14:12:00,
2013-04-29 10:15:00,54.8,47.7,30.31,SE,141,5.0,8.0,77,0.00,,,0.00,309.00,VWS V14.01,2013-04-29 14:15:00,
2013-04-29 10:17:00,54.1,47.7,30.31,South,184,5.0,5.0,79,0.00,,---,0.00,622.00,VWS V14.01,2013-04-29 14:17:00,
2013-04-29 10:22:00,54.1,48.1,30.31,SSW,192,6.0,6.0,80,0.00,,---,0.00,657.00,VWS V14.01,2013-04-29 14:22:00,
2013-04-29 10:27:00,54.3,48.3,30.31,South,187,4.0,6.0,80,0.00,,---,0.00,844.00,VWS V14.01,2013-04-29 14:27:00,
2013-04-29 10:30:00,55.3,47.9,30.31,SE,142,5.0,7.0,76,0.00,,,0.00,392.00,VWS V14.01,2013-04-29 14:30:00,
2013-04-29 10:32:00,54.5,48.5,30.31,South,177,5.0,5.0,80,0.00,,---,0.00,563.00,VWS V14.01,2013-04-29 14:32:00,
2013-04-29 10:37:00,54.6,48.6,30.31,South,177,5.0,5.0,80,0.00,,---,0.00,860.00,VWS V14.01,2013-04-29 14:37:00,
2013-04-29 10:42:00,54.8,48.4,30.31,South,181,4.0,5.0,79,0.00,,---,0.00,888.00,VWS V14.01,2013-04-29 14:42:00,
2013-04-29 10:45:00,56.7,48.5,30.31,SSE,158,6.0,7.0,74,0.00,,,0.00,656.00,VWS V14.01,2013-04-29 14:45:00,
2013-04-29 10:47:00,54.9,47.8,30.31,South,179,6.0,6.0,77,0.00,,---,0.00,981.00,VWS V14.01,2013-04-29 14:47:00,
2013-04-29 10:52:00,54.9,46.8,30.31,South,185,9.0,9.0,74,0.00,,---,0.00,981.00,VWS V14.01,2013-04-29 14:52:00,
2013-04-29 10:57:00,54.7,46.6,30.31,South,187,7.0,9.0,74,0.00,,---,0.00,902.00,VWS V14.01,2013-04-29 14:57:00,
2013-04-29 11:00:00,55.5,47.7,30.31,SSE,163,4.0,6.0,75,0.00,,,0.00,480.00,VWS V14.01,2013-04-29 15:00:00,
2013-04-29 11:02:00,54.7,46.2,30.31,South,188,9.0,9.0,73,0.00,,---,0.00,700.00,VWS V14.01,2013-04-29 15:02:00,
2013-04-29 11:07:00,54.6,45.8,30.31,South,180,7.0,10.0,72,0.00,,---,0.00,775.00,VWS V14.01,2013-04-29 15:07:00,
2013-04-29 11:12:00,54.6,45.8,30.31,South,191,7.0,10.0,72,0.00,,---,0.00,710.00,VWS V14.01,2013-04-29 15:12:00,
2013-04-29 11:15:00,54.1,47.7,30.31,South,178,5.0,7.0,79,0.00,,,0.00,603.00,VWS V14.01,2013-04-29 15:15:00,
2013-04-29 11:17:00,54.7,46.2,30.31,South,182,6.0,7.0,73,0.00,,---,0.00,821.00,VWS V14.01,2013-04-29 15:17:00,
2013-04-29 11:22:00,54.8,46.0,30.31,South,182,8.0,8.0,72,0.00,,---,0.00,918.00,VWS V14.01,2013-04-29 15:22:00,
2013-04-29 11:27:00,54.8,46.0,30.30,South,185,6.0,8.0,72,0.00,,---,0.00,877.00,VWS V14.01,2013-04-29 15:27:00,
2013-04-29 11:30:00,54.5,48.5,30.31,South,177,4.0,6.0,80,0.00,,,0.00,541.00,VWS V14.01,2013-04-29 15:30:00,
2013-04-29 11:32:00,54.9,45.7,30.30,South,184,6.0,7.0,71,0.00,,---,0.00,837.00,VWS V14.01,2013-04-29 15:32:00,
2013-04-29 11:37:00,55.0,46.2,30.30,South,189,6.0,7.0,72,0.00,,---,0.00,926.00,VWS V14.01,2013-04-29 15:37:00,
2013-04-29 11:42:00,55.2,46.7,30.30,SSW,199,8.0,8.0,73,0.00,,---,0.00,904.00,VWS V14.01,2013-04-29 15:42:00,
2013-04-29 11:45:00,54.9,47.8,30.31,South,179,6.0,7.0,77,0.00,,,0.00,981.00,VWS V14.01,2013-04-29 15:45:00,
2013-04-29 11:47:00,54.8,46.3,30.30,SW,215,9.0,9.0,73,0.00,,---,0.00,865.00,VWS V14.01,2013-04-29 15:47:00,
2013-04-29 11:52:00,54.6,46.5,30.30,SSW,212,9.0,10.0,74,0.00,,---,0.00,548.00,VWS V14.01,2013-04-29 15:52:00,
2013-04-29 11:57:00,54.4,45.9,30.30,SSW,205,8.0,10.0,73,0.00,,---,0.00,854.00,VWS V14.01,2013-04-29 15:57:00,
2013-04-29 12:00:00,54.7,46.2,30.31,South,176,9.0,10.0,73,0.00,,,0.00,700.00,VWS V14.01,2013-04-29 16:00:00,
2013-04-29 12:02:00,54.3,45.5,30.30,SSW,202,8.0,10.0,72,0.00,,---,0.00,830.00,VWS V14.01,2013-04-29 16:02:00,
2013-04-29 12:07:00,54.3,45.5,30.30,SSW,206,8.0,11.0,72,0.00,,---,0.00,879.00,VWS V14.01,2013-04-29 16:07:00,
2013-04-29 12:12:00,54.4,44.8,30.30,SSW,205,10.0,11.0,70,0.00,,---,0.00,949.00,VWS V14.01,2013-04-29 16:12:00,
2013-04-29 12:15:00,54.7,46.2,30.31,South,188,6.0,10.0,73,0.00,,,0.00,759.00,VWS V14.01,2013-04-29 16:15:00,
2013-04-29 12:17:00,54.5,45.3,30.29,SSW,207,10.0,11.0,71,0.00,,---,0.00,844.00,VWS V14.01,2013-04-29 16:17:00,
2013-04-29 12:22:00,54.4,45.9,30.29,SSW,209,10.0,11.0,73,0.00,,---,0.00,779.00,VWS V14.01,2013-04-29 16:22:00,
2013-04-29 12:27:00,54.4,45.6,30.29,SSW,209,9.0,11.0,72,0.00,,---,0.00,798.00,VWS V14.01,2013-04-29 16:27:00,
2013-04-29 12:30:00,54.9,45.7,30.30,South,183,5.0,8.0,71,0.00,,,0.00,851.00,VWS V14.01,2013-04-29 16:30:00,
2013-04-29 12:32:00,54.3,45.8,30.29,SSW,206,9.0,10.0,73,0.00,,---,0.00,940.00,VWS V14.01,2013-04-29 16:32:00,
2013-04-29 12:37:00,54.4,45.9,30.29,SSW,209,9.0,10.0,73,0.00,,---,0.00,782.00,VWS V14.01,2013-04-29 16:37:00,
2013-04-29 12:42:00,54.5,46.0,30.29,SW,214,8.0,10.0,73,0.00,,---,0.00,780.00,VWS V14.01,2013-04-29 16:42:00,
2013-04-29 12:45:00,54.9,46.4,30.30,SSW,207,9.0,10.0,73,0.00,,,0.00,865.00,VWS V14.01,2013-04-29 16:45:00,
2013-04-29 12:47:00,54.5,45.7,30.29,SSW,207,8.0,9.0,72,0.00,,---,0.00,905.00,VWS V14.01,2013-04-29 16:47:00,
2013-04-29 12:52:00,54.4,46.3,30.29,SSW,205,8.0,9.0,74,0.00,,---,0.00,953.00,VWS V14.01,2013-04-29 16:52:00,
2013-04-29 12:57:00,54.5,45.7,30.28,SSW,207,9.0,10.0,72,0.00,,---,0.00,993.00,VWS V14.01,2013-04-29 16:57:00,
2013-04-29 13:00:00,54.3,45.8,30.30,SSW,208,9.0,10.0,73,0.00,,,0.00,833.00,VWS V14.01,2013-04-29 17:00:00,
2013-04-29 13:02:00,54.5,44.9,30.28,SSW,202,8.0,9.0,70,0.00,,---,0.00,981.00,VWS V14.01,2013-04-29 17:02:00,
2013-04-29 13:07:00,54.7,45.9,30.28,SW,220,10.0,10.0,72,0.00,,---,0.00,828.00,VWS V14.01,2013-04-29 17:07:00,
2013-04-29 13:12:00,54.7,45.9,30.28,SSW,213,10.0,12.0,72,0.00,,---,0.00,828.00,VWS V14.01,2013-04-29 17:12:00,
2013-04-29 13:15:00,54.5,45.3,30.29,SSW,205,8.0,11.0,71,0.00,,,0.00,788.00,VWS V14.01,2013-04-29 17:15:00,
2013-04-29 13:17:00,54.7,46.2,30.28,SW,217,10.0,10.0,73,0.00,,---,0.00,902.00,VWS V14.01,2013-04-29 17:17:00,
2013-04-29 13:22:00,54.8,46.0,30.28,SW,215,11.0,11.0,72,0.00,,---,0.00,923.00,VWS V14.01,2013-04-29 17:22:00,
2013-04-29 13:27:00,54.8,46.0,30.28,SSW,208,9.0,11.0,72,0.00,,---,0.00,935.00,VWS V14.01,2013-04-29 17:27:00,
2013-04-29 13:30:00,54.3,45.8,30.29,SW,217,10.0,11.0,73,0.00,,,0.00,935.00,VWS V14.01,2013-04-29 17:30:00,
2013-04-29 13:33:00,54.6,46.5,30.28,SSW,207,9.0,9.0,74,0.00,,---,0.00,886.00,VWS V14.01,2013-04-29 17:33:00,
2013-04-29 13:38:00,54.4,46.3,30.28,SSW,202,8.0,10.0,74,0.00,,---,0.00,868.00,VWS V14.01,2013-04-29 17:38:00,
2013-04-29 13:43:00,54.4,45.9,30.27,SSW,205,9.0,10.0,73,0.00,,---,0.00,984.00,VWS V14.01,2013-04-29 17:43:00,
2013-04-29 13:45:00,54.5,45.7,30.29,SSW,205,8.0,10.0,72,0.00,,,0.00,846.00,VWS V14.01,2013-04-29 17:45:00,
2013-04-29 13:48:00,54.4,45.9,30.28,SSW,205,10.0,10.0,73,0.00,,---,0.00,932.00,VWS V14.01,2013-04-29 17:48:00,
2013-04-29 13:53:00,54.5,46.0,30.28,SSW,202,8.0,10.0,73,0.00,,---,0.00,974.00,VWS V14.01,2013-04-29 17:53:00,
2013-04-29 13:58:00,54.6,45.8,30.28,SSW,204,10.0,11.0,72,0.00,,---,0.00,932.00,VWS V14.01,2013-04-29 17:58:00,
2013-04-29 14:00:00,54.5,44.9,30.28,SSW,205,9.0,10.0,70,0.00,,,0.00,842.00,VWS V14.01,2013-04-29 18:00:00,
2013-04-29 14:03:00,54.7,45.9,30.28,SSW,202,9.0,10.0,72,0.00,,---,0.00,923.00,VWS V14.01,2013-04-29 18:03:00,
2013-04-29 14:08:00,54.5,45.7,30.28,SSW,204,10.0,11.0,72,0.00,,---,0.00,844.00,VWS V14.01,2013-04-29 18:08:00,
2013-04-29 14:13:00,54.4,45.9,30.28,SSW,205,9.0,11.0,73,0.00,,---,0.00,854.00,VWS V14.01,2013-04-29 18:13:00,
2013-04-29 14:15:00,54.7,45.9,30.28,SW,222,10.0,12.0,72,0.00,,,0.00,902.00,VWS V14.01,2013-04-29 18:15:00,
2013-04-29 14:18:00,54.2,45.8,30.28,SSW,209,10.0,11.0,73,0.00,,---,0.00,722.00,VWS V14.01,2013-04-29 18:18:00,
2013-04-29 14:23:00,54.1,46.0,30.28,SSW,209,10.0,11.0,74,0.00,,---,0.00,701.00,VWS V14.01,2013-04-29 18:23:00,
2013-04-29 14:28:00,54.1,45.7,30.28,SSW,211,10.0,11.0,73,0.00,,---,0.00,726.00,VWS V14.01,2013-04-29 18:28:00,
2013-04-29 14:30:00,54.6,46.5,30.28,SSW,205,8.0,11.0,74,0.00,,,0.00,842.00,VWS V14.01,2013-04-29 18:30:00,
2013-04-29 14:33:00,53.9,45.1,30.28,SSW,200,9.0,10.0,72,0.00,,---,0.00,338.00,VWS V14.01,2013-04-29 18:33:00,
2013-04-29 14:38:00,53.9,45.5,30.27,SSW,207,9.0,11.0,73,0.00,,---,0.00,795.00,VWS V14.01,2013-04-29 18:38:00,
2013-04-29 14:43:00,54.1,44.5,30.27,SSW,201,8.0,11.0,70,0.00,,---,0.00,914.00,VWS V14.01,2013-04-29 18:43:00,
2013-04-29 14:45:00,54.4,45.6,30.28,SSW,203,9.0,10.0,72,0.00,,,0.00,940.00,VWS V14.01,2013-04-29 18:45:00,
2013-04-29 14:48:00,54.4,42.9,30.27,SSW,202,10.0,11.0,65,0.00,,---,0.00,791.00,VWS V14.01,2013-04-29 18:48:00,
2013-04-29 14:53:00,54.5,43.8,30.27,SSW,202,9.0,11.0,67,0.00,,---,0.00,793.00,VWS V14.01,2013-04-29 18:53:00,
2013-04-29 14:58:00,54.4,42.9,30.27,SSW,205,9.0,11.0,65,0.00,,---,0.00,731.00,VWS V14.01,2013-04-29 18:58:00,
2013-04-29 15:00:00,54.6,45.8,30.28,SSW,199,10.0,11.0,72,0.00,,,0.00,928.00,VWS V14.01,2013-04-29 19:00:00,
2013-04-29 15:03:00,54.5,43.4,30.27,SW,216,10.0,10.0,66,0.00,,---,0.00,487.00,VWS V14.01,2013-04-29 19:03:00,
2013-04-29 15:08:00,54.5,43.0,30.27,SSW,212,10.0,11.0,65,0.00,,---,0.00,534.00,VWS V14.01,2013-04-29 19:08:00,
2013-04-29 15:13:00,54.3,42.8,30.27,SSW,209,10.0,11.0,65,0.00,,---,0.00,329.00,VWS V14.01,2013-04-29 19:13:00,
2013-04-29 15:15:00,54.3,46.2,30.28,SSW,205,11.0,11.0,74,0.00,,,0.00,900.00,VWS V14.01,2013-04-29 19:15:00,
2013-04-29 15:18:00,54.3,41.6,30.27,SSW,204,11.0,11.0,62,0.00,,---,0.00,661.00,VWS V14.01,2013-04-29 19:18:00,
2013-04-29 15:23:00,54.3,42.0,30.27,SW,217,10.0,12.0,63,0.00,,---,0.00,765.00,VWS V14.01,2013-04-29 19:23:00,
2013-04-29 15:28:00,54.6,41.9,30.27,SW,223,11.0,12.0,62,0.00,,---,0.00,798.00,VWS V14.01,2013-04-29 19:28:00,
2013-04-29 15:30:00,54.0,45.5,30.28,SSW,207,10.0,11.0,73,0.00,,,0.00,784.00,VWS V14.01,2013-04-29 19:30:00,
2013-04-29 15:33:00,54.7,41.5,30.27,SSW,207,9.0,12.0,61,0.00,,---,0.00,526.00,VWS V14.01,2013-04-29 19:33:00,
2013-04-29 15:38:00,54.5,41.3,30.27,SSW,207,12.0,12.0,61,0.00,,---,0.00,652.00,VWS V14.01,2013-04-29 19:38:00,
2013-04-29 15:43:00,54.5,41.8,30.27,SW,217,11.0,12.0,62,0.00,,---,0.00,735.00,VWS V14.01,2013-04-29 19:43:00,
2013-04-29 15:45:00,54.3,43.6,30.27,SSW,205,9.0,11.0,67,0.00,,,0.00,905.00,VWS V14.01,2013-04-29 19:45:00,
2013-04-29 15:48:00,54.8,41.6,30.27,SW,214,11.0,11.0,61,0.00,,---,0.00,717.00,VWS V14.01,2013-04-29 19:48:00,
2013-04-29 15:53:00,54.8,41.2,30.27,SSW,203,10.0,11.0,60,0.00,,---,0.00,675.00,VWS V14.01,2013-04-29 19:53:00,
2013-04-29 15:58:00,54.5,42.2,30.26,SSW,202,9.0,11.0,63,0.00,,---,0.00,596.00,VWS V14.01,2013-04-29 19:58:00,
2013-04-29 16:00:00,54.5,43.4,30.27,SW,215,9.0,11.0,66,0.00,,,0.00,722.00,VWS V14.01,2013-04-29 20:00:00,
2013-04-29 16:03:00,54.5,43.4,30.26,SSW,197,8.0,10.0,66,0.00,,---,0.00,584.00,VWS V14.01,2013-04-29 20:03:00,
2013-04-29 16:08:00,54.6,43.9,30.26,SSW,192,8.0,10.0,67,0.00,,---,0.00,543.00,VWS V14.01,2013-04-29 20:08:00,
2013-04-29 16:13:00,54.6,43.1,30.26,SSW,198,9.0,10.0,65,0.00,,---,0.00,526.00,VWS V14.01,2013-04-29 20:13:00,
2013-04-29 16:15:00,54.3,42.0,30.27,SSW,208,11.0,11.0,63,0.00,,,0.00,745.00,VWS V14.01,2013-04-29 20:15:00,
2013-04-29 16:18:00,54.5,44.2,30.26,SSW,198,8.0,10.0,68,0.00,,---,0.00,485.00,VWS V14.01,2013-04-29 20:18:00,
2013-04-29 16:23:00,54.6,43.9,30.26,SSW,193,7.0,10.0,67,0.00,,---,0.00,399.00,VWS V14.01,2013-04-29 20:23:00,
2013-04-29 16:28:00,54.8,44.1,30.26,South,186,8.0,10.0,67,0.00,,---,0.00,322.00,VWS V14.01,2013-04-29 20:28:00,
2013-04-29 16:30:00,54.7,40.7,30.27,SSW,206,9.0,13.0,59,0.00,,,0.00,571.00,VWS V14.01,2013-04-29 20:30:00,
2013-04-29 16:33:00,54.8,43.7,30.26,SSW,192,8.0,10.0,66,0.00,,---,0.00,323.00,VWS V14.01,2013-04-29 20:33:00,
2013-04-29 16:38:00,54.9,43.8,30.26,SSW,194,8.0,10.0,66,0.00,,---,0.00,394.00,VWS V14.01,2013-04-29 20:38:00,
2013-04-29 16:43:00,54.7,44.0,30.26,SSW,202,8.0,10.0,67,0.00,,---,0.00,415.00,VWS V14.01,2013-04-29 20:43:00,
2013-04-29 16:45:00,54.7,42.0,30.27,SW,229,10.0,12.0,62,0.00,,,0.00,526.00,VWS V14.01,2013-04-29 20:45:00,
2013-04-29 16:48:00,54.7,43.6,30.26,SSW,200,7.0,8.0,66,0.00,,---,0.00,387.00,VWS V14.01,2013-04-29 20:48:00,
2013-04-29 16:53:00,54.8,43.7,30.26,SSW,195,7.0,9.0,66,0.00,,---,0.00,425.00,VWS V14.01,2013-04-29 20:53:00,
2013-04-29 16:58:00,55.0,44.7,30.26,SSW,198,6.0,9.0,68,0.00,,---,0.00,396.00,VWS V14.01,2013-04-29 20:58:00,
2013-04-29 17:00:00,54.4,43.3,30.26,SSW,201,8.0,11.0,66,0.00,,,0.00,608.00,VWS V14.01,2013-04-29 21:00:00,
2013-04-29 17:03:00,54.9,44.5,30.26,SSW,203,7.0,7.0,68,0.00,,---,0.00,348.00,VWS V14.01,2013-04-29 21:03:00,
2013-04-29 17:08:00,54.6,44.7,30.26,SSW,198,7.0,8.0,69,0.00,,---,0.00,323.00,VWS V14.01,2013-04-29 21:08:00,
2013-04-29 17:13:00,54.7,44.0,30.26,South,186,6.0,9.0,67,0.00,,---,0.00,350.00,VWS V14.01,2013-04-29 21:13:00,
2013-04-29 17:18:00,54.8,44.5,30.26,South,188,7.0,7.0,68,0.00,,---,0.00,311.00,VWS V14.01,2013-04-29 21:18:00,
2013-04-29 17:23:00,54.8,41.6,30.26,South,178,10.0,10.0,61,0.00,,---,0.00,345.00,VWS V14.01,2013-04-29 21:23:00,
2013-04-29 17:28:00,54.8,41.6,30.26,South,188,9.0,10.0,61,0.00,,---,0.00,229.00,VWS V14.01,2013-04-29 21:28:00,
2013-04-29 17:30:00,54.8,44.1,30.26,South,186,10.0,10.0,67,0.00,,,0.00,327.00,VWS V14.01,2013-04-29 21:30:00,
2013-04-29 17:33:00,54.6,42.3,30.26,South,183,7.0,9.0,63,0.00,,---,0.00,192.00,VWS V14.01,2013-04-29 21:33:00,
2013-04-29 17:38:00,54.3,42.0,30.26,South,180,7.0,9.0,63,0.00,,---,0.00,179.00,VWS V14.01,2013-04-29 21:38:00,
2013-04-29 17:43:00,54.2,42.3,30.26,South,171,7.0,9.0,64,0.00,,---,0.00,185.00,VWS V14.01,2013-04-29 21:43:00,
2013-04-29 17:45:00,54.6,42.7,30.26,SSW,195,8.0,10.0,64,0.00,,,0.00,403.00,VWS V14.01,2013-04-29 21:45:00,
2013-04-29 17:48:00,54.2,43.1,30.26,South,173,8.0,9.0,66,0.00,,---,0.00,141.00,VWS V14.01,2013-04-29 21:48:00,
2013-04-29 17:53:00,54.1,43.4,30.26,South,171,8.0,9.0,67,0.00,,---,0.00,114.00,VWS V14.01,2013-04-29 21:53:00,
2013-04-29 17:58:00,54.1,42.6,30.26,South,171,8.0,9.0,65,0.00,,---,0.00,102.00,VWS V14.01,2013-04-29 21:58:00,
2013-04-29 18:00:00,55.0,44.7,30.26,SSW,192,7.0,9.0,68,0.00,,,0.00,381.00,VWS V14.01,2013-04-29 22:00:00,
2013-04-29 18:03:00,54.1,43.4,30.26,South,184,7.0,9.0,67,0.00,,---,0.00,91.00,VWS V14.01,2013-04-29 22:03:00,
2013-04-29 18:08:00,54.0,43.3,30.26,South,180,8.0,9.0,67,0.00,,---,0.00,90.00,VWS V14.01,2013-04-29 22:08:00,
2013-04-29 18:13:00,54.0,42.9,30.26,South,181,8.0,10.0,66,0.00,,---,0.00,88.00,VWS V14.01,2013-04-29 22:13:00,
2013-04-29 18:15:00,54.8,44.1,30.26,South,188,7.0,9.0,67,0.00,,,0.00,311.00,VWS V14.01,2013-04-29 22:15:00,
2013-04-29 18:18:00,54.0,43.3,30.26,South,185,9.0,10.0,67,0.00,,---,0.00,83.00,VWS V14.01,2013-04-29 22:18:00,
2013-04-29 18:23:00,53.8,42.7,30.26,South,183,8.0,10.0,66,0.00,,---,0.00,81.00,VWS V14.01,2013-04-29 22:23:00,
2013-04-29 18:28:00,53.7,43.4,30.26,South,186,6.0,10.0,68,0.00,,---,0.00,72.00,VWS V14.01,2013-04-29 22:28:00,
2013-04-29 18:30:00,54.7,42.0,30.26,South,184,8.0,10.0,62,0.00,,,0.00,223.00,VWS V14.01,2013-04-29 22:30:00,
2013-04-29 18:33:00,53.5,43.2,30.26,South,183,6.0,8.0,68,0.00,,---,0.00,62.00,VWS V14.01,2013-04-29 22:33:00,
2013-04-29 18:38:00,53.2,43.7,30.26,South,183,7.0,8.0,70,0.00,,---,0.00,54.00,VWS V14.01,2013-04-29 22:38:00,
2013-04-29 18:43:00,53.0,43.1,30.26,South,178,6.0,8.0,69,0.00,,---,0.00,51.00,VWS V14.01,2013-04-29 22:43:00,
2013-04-29 18:45:00,54.2,43.9,30.26,South,171,6.0,9.0,68,0.00,,,0.00,181.00,VWS V14.01,2013-04-29 22:45:00,
2013-04-29 18:48:00,53.0,43.1,30.26,South,182,4.0,7.0,69,0.00,,---,0.00,47.00,VWS V14.01,2013-04-29 22:48:00,
2013-04-29 18:53:00,52.9,43.0,30.26,South,176,5.0,7.0,69,0.00,,---,0.00,42.00,VWS V14.01,2013-04-29 22:53:00,
2013-04-29 18:58:00,52.8,42.5,30.26,South,180,5.0,7.0,68,0.00,,---,0.00,35.00,VWS V14.01,2013-04-29 22:58:00,
2013-04-29 19:00:00,54.1,43.0,30.26,South,181,7.0,9.0,66,0.00,,,0.00,95.00,VWS V14.01,2013-04-29 23:00:00,
2013-04-29 19:03:00,52.8,42.9,30.26,South,175,6.0,7.0,69,0.00,,---,0.00,30.00,VWS V14.01,2013-04-29 23:03:00,
2013-04-29 19:08:00,52.7,43.2,30.26,South,171,4.0,7.0,70,0.00,,---,0.00,26.00,VWS V14.01,2013-04-29 23:08:00,
2013-04-29 19:13:00,52.6,42.7,30.26,SSE,166,5.0,7.0,69,0.00,,---,0.00,23.00,VWS V14.01,2013-04-29 23:13:00,
2013-04-29 19:15:00,54.0,42.9,30.26,South,181,9.0,10.0,66,0.00,,,0.00,84.00,VWS V14.01,2013-04-29 23:15:00,
2013-04-29 19:18:00,52.5,41.1,30.26,South,170,6.0,8.0,65,0.00,,---,0.00,19.00,VWS V14.01,2013-04-29 23:18:00,
2013-04-29 19:23:00,52.6,41.6,30.26,SSE,168,6.0,8.0,66,0.00,,---,0.00,16.00,VWS V14.01,2013-04-29 23:23:00,
2013-04-29 19:28:00,52.5,41.5,30.26,South,184,6.0,8.0,66,0.00,,---,0.00,12.00,VWS V14.01,2013-04-29 23:28:00,
2013-04-29 19:30:00,53.6,43.3,30.26,South,184,7.0,10.0,68,0.00,,,0.00,67.00,VWS V14.01,2013-04-29 23:30:00,
2013-04-29 19:33:00,52.5,42.3,30.27,South,186,5.0,8.0,68,0.00,,---,0.00,7.00,VWS V14.01,2013-04-29 23:33:00,
2013-04-29 19:38:00,52.4,42.9,30.27,South,180,5.0,8.0,70,0.00,,---,0.00,5.00,VWS V14.01,2013-04-29 23:38:00,
2013-04-29 19:43:00,52.3,42.8,30.27,South,171,5.0,8.0,70,0.00,,---,0.00,0.00,VWS V14.01,2013-04-29 23:43:00,
2013-04-29 19:45:00,53.0,42.7,30.26,South,181,4.0,8.0,68,0.00,,,0.00,49.00,VWS V14.01,2013-04-29 23:45:00,
2013-04-29 19:48:00,52.3,42.8,30.27,SSE,157,5.0,7.0,70,0.00,,---,0.00,0.00,VWS V14.01,2013-04-29 23:48:00,
2013-04-29 19:53:00,52.2,41.6,30.27,SSE,155,8.0,8.0,67,0.00,,---,0.00,0.00,VWS V14.01,2013-04-29 23:53:00,
2013-04-29 19:58:00,52.1,41.1,30.27,SSE,162,6.0,8.0,66,0.00,,---,0.00,0.00,VWS V14.01,2013-04-29 23:58:00,
2013-04-29 20:00:00,52.8,42.9,30.26,South,181,5.0,7.0,69,0.00,,,0.00,33.00,VWS V14.01,2013-04-30 00:00:00,
2013-04-29 20:03:00,52.1,41.1,30.27,SSE,160,6.0,7.0,66,0.00,,---,0.00,0.00,VWS V14.01,2013-04-30 00:03:00,
2013-04-29 20:08:00,52.0,41.4,30.27,SSE,155,6.0,7.0,67,0.00,,---,0.00,0.00,VWS V14.01,2013-04-30 00:08:00,
2013-04-29 20:13:00,51.8,41.6,30.27,SSE,156,4.0,7.0,68,0.00,,---,0.00,0.00,VWS V14.01,2013-04-30 00:13:00,
2013-04-29 20:15:00,52.5,42.3,30.26,SSE,165,6.0,7.0,68,0.00,,,0.00,21.00,VWS V14.01,2013-04-30 00:15:00,
2013-04-29 20:18:00,51.7,41.5,30.27,SSE,155,5.0,7.0,68,0.00,,---,0.00,0.00,VWS V14.01,2013-04-30 00:18:00,
2013-04-29 20:23:00,51.5,42.0,30.27,SSE,152,2.0,7.0,70,0.00,,---,0.00,0.00,VWS V14.01,2013-04-30 00:23:00,
2013-04-29 20:28:00,51.4,42.7,30.28,SSE,151,5.0,7.0,72,0.00,,---,0.00,0.00,VWS V14.01,2013-04-30 00:28:00,
2013-04-29 20:30:00,52.5,42.3,30.27,South,182,7.0,8.0,68,0.00,,,0.00,11.00,VWS V14.01,2013-04-30 00:30:00,
2013-04-29 20:33:00,51.2,42.9,30.28,SSE,153,2.0,5.0,73,0.00,,---,0.00,0.00,VWS V14.01,2013-04-30 00:33:00,
2013-04-29 20:38:00,51.0,41.9,30.28,SE,141,7.0,7.0,71,0.00,,---,0.00,0.00,VWS V14.01,2013-04-30 00:38:00,
2013-04-29 20:43:00,50.9,40.7,30.28,SE,146,6.0,8.0,68,0.00,,---,0.00,0.00,VWS V14.01,2013-04-30 00:43:00,
2013-04-29 20:45:00,52.3,42.8,30.26,SSE,168,6.0,8.0,70,0.00,,,0.00,0.00,VWS V14.01,2013-04-30 00:45:00,
2013-04-29 20:48:00,50.9,41.1,30.29,SE,139,5.0,7.0,69,0.00,,---,0.00,0.00,VWS V14.01,2013-04-30 00:48:00,
2013-04-29 20:53:00,50.9,41.5,30.29,SE,144,5.0,7.0,70,0.00,,---,0.00,0.00,VWS V14.01,2013-04-30 00:53:00,
2013-04-29 20:58:00,50.8,41.4,30.29,SE,140,6.0,7.0,70,0.00,,---,0.00,0.00,VWS V14.01,2013-04-30 00:58:00,
2013-04-29 21:00:00,52.1,40.7,30.27,SSE,159,7.0,8.0,65,0.00,,,0.00,0.00,VWS V14.01,2013-04-30 01:00:00,
2013-04-29 21:03:00,50.8,41.0,30.29,SE,140,7.0,7.0,69,0.00,,---,0.00,0.00,VWS V14.01,2013-04-30 01:03:00,
2013-04-29 21:08:00,50.7,40.5,30.29,SE,133,5.0,7.0,68,0.00,,---,0.00,0.00,VWS V14.01,2013-04-30 01:08:00,
2013-04-29 21:13:00,50.6,40.8,30.29,SE,135,0.0,7.0,69,0.00,,---,0.00,0.00,VWS V14.01,2013-04-30 01:13:00,
2013-04-29 21:15:00,51.7,41.9,30.27,SSE,157,4.0,7.0,69,0.00,,,0.00,0.00,VWS V14.01,2013-04-30 01:15:00,
2013-04-29 21:18:00,50.5,40.7,30.29,SSE,150,5.0,8.0,69,0.00,,---,0.00,0.00,VWS V14.01,2013-04-30 01:18:00,
2013-04-29 21:23:00,50.5,40.7,30.29,SE,144,6.0,8.0,69,0.00,,---,0.00,0.00,VWS V14.01,2013-04-30 01:23:00,
2013-04-29 21:28:00,50.5,41.8,30.29,SE,142,5.0,8.0,72,0.00,,---,0.00,0.00,VWS V14.01,2013-04-30 01:28:00,
2013-04-29 21:30:00,51.3,43.0,30.28,SSE,153,5.0,7.0,73,0.00,,,0.00,0.00,VWS V14.01,2013-04-30 01:30:00,
2013-04-29 21:33:00,50.4,42.4,30.29,SSE,148,5.0,6.0,74,0.00,,---,0.00,0.00,VWS V14.01,2013-04-30 01:33:00,
2013-04-29 21:38:00,50.4,42.4,30.29,SE,146,6.0,8.0,74,0.00,,---,0.00,0.00,VWS V14.01,2013-04-30 01:38:00,
2013-04-29 21:43:00,50.2,41.9,30.29,SSE,148,7.0,9.0,73,0.00,,---,0.00,0.00,VWS V14.01,2013-04-30 01:43:00,
2013-04-29 21:45:00,50.9,40.7,30.29,SE,138,6.0,8.0,68,0.00,,,0.00,0.00,VWS V14.01,2013-04-30 01:45:00,
2013-04-29 21:48:00,50.2,42.2,30.29,SSE,160,4.0,8.0,74,0.00,,---,0.00,0.00,VWS V14.01,2013-04-30 01:48:00,
2013-04-29 21:53:00,50.1,42.2,30.29,SSE,148,6.0,8.0,74,0.00,,---,0.00,0.00,VWS V14.01,2013-04-30 01:53:00,
2013-04-29 21:58:00,50.0,42.0,30.29,SSE,149,6.0,8.0,74,0.00,,---,0.00,0.00,VWS V14.01,2013-04-30 01:58:00,
2013-04-29 22:00:00,50.8,41.4,30.29,SE,135,4.0,7.0,70,0.00,,,0.00,0.00,VWS V14.01,2013-04-30 02:00:00,
2013-04-29 22:03:00,49.9,42.0,30.29,SE,146,5.0,6.0,74,0.00,,---,0.00,0.00,VWS V14.01,2013-04-30 02:03:00,
2013-04-29 22:09:00,49.8,42.2,30.29,SSE,150,6.0,7.0,75,0.00,,---,0.00,0.00,VWS V14.01,2013-04-30 02:09:00,
2013-04-29 22:14:00,49.7,42.1,30.29,SE,142,4.0,7.0,75,0.00,,---,0.00,0.00,VWS V14.01,2013-04-30 02:14:00,
2013-04-29 22:15:00,50.6,40.8,30.29,SE,138,4.0,7.0,69,0.00,,,0.00,0.00,VWS V14.01,2013-04-30 02:15:00,
2013-04-29 22:19:00,49.7,41.8,30.29,SE,138,5.0,6.0,74,0.00,,---,0.00,0.00,VWS V14.01,2013-04-30 02:19:00,
2013-04-29 22:24:00,49.6,41.7,30.29,SE,142,5.0,6.0,74,0.00,,---,0.00,0.00,VWS V14.01,2013-04-30 02:24:00,
2013-04-29 22:29:00,49.6,41.3,30.29,SE,134,5.0,6.0,73,0.00,,---,0.00,0.00,VWS V14.01,2013-04-30 02:29:00,
2013-04-29 22:30:00,50.5,41.8,30.29,SE,142,5.0,8.0,72,0.00,,,0.00,0.00,VWS V14.01,2013-04-30 02:30:00,
2013-04-29 22:34:00,49.6,41.0,30.29,SE,131,4.0,6.0,72,0.00,,---,0.00,0.00,VWS V14.01,2013-04-30 02:34:00,
2013-04-29 22:39:00,49.5,40.9,30.29,SE,136,5.0,6.0,72,0.00,,---,0.00,0.00,VWS V14.01,2013-04-30 02:39:00,
2013-04-29 22:44:00,49.6,42.0,30.29,ESE,119,2.0,6.0,75,0.00,,---,0.00,0.00,VWS V14.01,2013-04-30 02:44:00,
2013-04-29 22:45:00,50.2,42.2,30.29,SSE,155,4.0,9.0,74,0.00,,,0.00,0.00,VWS V14.01,2013-04-30 02:45:00,
2013-04-29 22:49:00,49.5,41.6,30.29,SE,129,4.0,5.0,74,0.00,,---,0.00,0.00,VWS V14.01,2013-04-30 02:49:00,
2013-04-29 22:54:00,49.3,41.0,30.29,SE,132,5.0,6.0,73,0.00,,---,0.00,0.00,VWS V14.01,2013-04-30 02:54:00,
2013-04-29 22:59:00,49.4,41.5,30.29,SE,129,6.0,7.0,74,0.00,,---,0.00,0.00,VWS V14.01,2013-04-30 02:59:00,
2013-04-29 23:00:00,49.9,42.0,30.29,SE,144,6.0,8.0,74,0.00,,,0.00,0.00,VWS V14.01,2013-04-30 03:00:00,
2013-04-29 23:04:00,49.5,41.9,30.29,SE,138,5.0,6.0,75,0.00,,---,0.00,0.00,VWS V14.01,2013-04-30 03:04:00,
2013-04-29 23:09:00,49.6,41.7,30.29,SE,136,5.0,7.0,74,0.00,,---,0.00,0.00,VWS V14.01,2013-04-30 03:09:00,
2013-04-29 23:14:00,49.5,41.6,30.29,SE,136,6.0,7.0,74,0.00,,---,0.00,0.00,VWS V14.01,2013-04-30 03:14:00,
2013-04-29 23:15:00,49.7,42.1,30.29,SE,141,2.0,7.0,75,0.00,,,0.00,0.00,VWS V14.01,2013-04-30 03:15:00,
2013-04-29 23:19:00,49.4,41.5,30.29,SE,128,5.0,6.0,74,0.00,,---,0.00,0.00,VWS V14.01,2013-04-30 03:19:00,
2013-04-29 23:24:00,49.4,41.5,30.29,SE,140,6.0,7.0,74,0.00,,---,0.00,0.00,VWS V14.01,2013-04-30 03:24:00,
2013-04-29 23:29:00,49.3,41.7,30.29,SSE,150,5.0,7.0,75,0.00,,---,0.00,0.00,VWS V14.01,2013-04-30 03:29:00,
2013-04-29 23:30:00,49.6,41.0,30.29,SE,130,5.0,6.0,72,0.00,,,0.00,0.00,VWS V14.01,2013-04-30 03:30:00,
2013-04-29 23:34:00,49.3,42.1,30.29,SSE,155,4.0,6.0,76,0.00,,---,0.00,0.00,VWS V14.01,2013-04-30 03:34:00,
2013-04-29 23:39:00,49.2,42.0,30.29,SSE,154,4.0,6.0,76,0.00,,---,0.00,0.00,VWS V14.01,2013-04-30 03:39:00,
2013-04-29 23:44:00,49.3,42.1,30.29,SSE,165,5.0,6.0,76,0.00,,---,0.00,0.00,VWS V14.01,2013-04-30 03:44:00,
2013-04-29 23:45:00,49.5,41.6,30.29,SE,130,4.0,6.0,74,0.00,,,0.00,0.00,VWS V14.01,2013-04-30 03:45:00,
2013-04-29 23:49:00,49.4,41.8,30.29,SSE,165,4.0,5.0,75,0.00,,---,0.00,0.00,VWS V14.01,2013-04-30 03:49:00,
2013-04-29 23:54:00,49.4,41.8,30.29,SSE,165,4.0,5.0,75,0.00,,---,0.00,0.00,VWS V14.01,2013-04-30 03:54:00,
2013-04-29 23:59:00,49.4,41.5,30.29,SSE,165,5.0,5.0,74,0.00,,---,0.00,0.00,VWS V14.01,2013-04-30 03:59:00,